sensor_id;sensor_type;location;lat;lon;timestamp;temperature;humidity
68480;DHT22;55469;48.934;12.050;2023-03-23T00:01:21;13.10;89.60
68480;DHT22;55469;48.934;12.050;2023-03-23T00:03:51;13.10;89.80
68480;DHT22;55469;48.934;12.050;2023-03-23T00:06:19;13.10;89.80
68480;DHT22;55469;48.934;12.050;2023-03-23T00:08:48;13.10;89.70
68480;DHT22;55469;48.934;12.050;2023-03-23T00:11:18;13.10;89.80
68480;DHT22;55469;48.934;12.050;2023-03-23T00:13:47;13.00;89.80
68480;DHT22;55469;48.934;12.050;2023-03-23T00:16:19;13.00;89.90
68480;DHT22;55469;48.934;12.050;2023-03-23T00:18:50;13.00;89.90
68480;DHT22;55469;48.934;12.050;2023-03-23T00:21:23;13.00;90.50
68480;DHT22;55469;48.934;12.050;2023-03-23T00:26:45;13.00;90.00
68480;DHT22;55469;48.934;12.050;2023-03-23T00:29:15;12.90;90.00
68480;DHT22;55469;48.934;12.050;2023-03-23T00:31:43;12.90;90.00
68480;DHT22;55469;48.934;12.050;2023-03-23T00:34:14;12.90;90.00
68480;DHT22;55469;48.934;12.050;2023-03-23T00:36:46;12.90;90.10
68480;DHT22;55469;48.934;12.050;2023-03-23T00:39:13;12.90;90.10
68480;DHT22;55469;48.934;12.050;2023-03-23T00:41:44;12.80;90.10
68480;DHT22;55469;48.934;12.050;2023-03-23T00:44:11;12.80;90.20
68480;DHT22;55469;48.934;12.050;2023-03-23T00:46:43;12.80;90.10
68480;DHT22;55469;48.934;12.050;2023-03-23T00:49:17;12.80;90.20
68480;DHT22;55469;48.934;12.050;2023-03-23T00:51:49;12.70;90.10
68480;DHT22;55469;48.934;12.050;2023-03-23T00:54:15;12.70;90.10
68480;DHT22;55469;48.934;12.050;2023-03-23T00:56:41;12.70;90.10
68480;DHT22;55469;48.934;12.050;2023-03-23T00:59:07;12.70;90.20
68480;DHT22;55469;48.934;12.050;2023-03-23T01:01:33;12.70;90.20
68480;DHT22;55469;48.934;12.050;2023-03-23T01:04:00;12.60;90.20
68480;DHT22;55469;48.934;12.050;2023-03-23T01:06:33;12.60;90.20
68480;DHT22;55469;48.934;12.050;2023-03-23T01:09:01;12.60;90.20
68480;DHT22;55469;48.934;12.050;2023-03-23T01:11:27;12.60;90.30
68480;DHT22;55469;48.934;12.050;2023-03-23T01:13:53;12.60;90.20
68480;DHT22;55469;48.934;12.050;2023-03-23T01:16:19;12.60;90.30
68480;DHT22;55469;48.934;12.050;2023-03-23T01:18:45;12.60;90.30
68480;DHT22;55469;48.934;12.050;2023-03-23T01:21:14;12.50;90.30
68480;DHT22;55469;48.934;12.050;2023-03-23T01:23:43;12.60;90.30
68480;DHT22;55469;48.934;12.050;2023-03-23T01:26:15;12.50;90.30
68480;DHT22;55469;48.934;12.050;2023-03-23T01:28:42;12.50;90.30
68480;DHT22;55469;48.934;12.050;2023-03-23T01:31:11;12.50;90.30
68480;DHT22;55469;48.934;12.050;2023-03-23T01:33:39;12.50;90.30
68480;DHT22;55469;48.934;12.050;2023-03-23T01:36:08;12.50;90.40
68480;DHT22;55469;48.934;12.050;2023-03-23T01:38:38;12.40;90.30
68480;DHT22;55469;48.934;12.050;2023-03-23T01:41:04;12.50;90.40
68480;DHT22;55469;48.934;12.050;2023-03-23T01:43:31;12.40;90.40
68480;DHT22;55469;48.934;12.050;2023-03-23T01:45:57;12.40;90.40
68480;DHT22;55469;48.934;12.050;2023-03-23T01:48:32;12.40;90.40
68480;DHT22;55469;48.934;12.050;2023-03-23T01:51:09;12.40;90.40
68480;DHT22;55469;48.934;12.050;2023-03-23T01:53:54;12.40;90.40
68480;DHT22;55469;48.934;12.050;2023-03-23T01:56:25;12.40;90.40
68480;DHT22;55469;48.934;12.050;2023-03-23T01:58:55;12.30;90.50
68480;DHT22;55469;48.934;12.050;2023-03-23T02:01:22;12.30;90.50
68480;DHT22;55469;48.934;12.050;2023-03-23T02:03:53;12.30;90.50
68480;DHT22;55469;48.934;12.050;2023-03-23T02:06:20;12.30;90.50
68480;DHT22;55469;48.934;12.050;2023-03-23T02:08:48;12.30;90.50
68480;DHT22;55469;48.934;12.050;2023-03-23T02:11:17;12.20;90.50
68480;DHT22;55469;48.934;12.050;2023-03-23T02:13:45;12.20;90.50
68480;DHT22;55469;48.934;12.050;2023-03-23T02:16:34;12.20;90.50
68480;DHT22;55469;48.934;12.050;2023-03-23T02:22:49;12.20;90.50
68480;DHT22;55469;48.934;12.050;2023-03-23T02:35:22;12.10;90.70
68480;DHT22;55469;48.934;12.050;2023-03-23T02:37:56;12.10;90.70
68480;DHT22;55469;48.934;12.050;2023-03-23T02:40:30;12.10;90.70
68480;DHT22;55469;48.934;12.050;2023-03-23T02:42:58;12.00;90.70
68480;DHT22;55469;48.934;12.050;2023-03-23T02:45:27;12.00;90.70
68480;DHT22;55469;48.934;12.050;2023-03-23T02:47:56;12.00;90.70
68480;DHT22;55469;48.934;12.050;2023-03-23T02:50:24;12.00;90.70
68480;DHT22;55469;48.934;12.050;2023-03-23T02:52:53;12.00;90.70
68480;DHT22;55469;48.934;12.050;2023-03-23T02:55:21;12.00;90.70
68480;DHT22;55469;48.934;12.050;2023-03-23T02:57:50;12.00;90.80
68480;DHT22;55469;48.934;12.050;2023-03-23T03:00:18;11.90;90.70
68480;DHT22;55469;48.934;12.050;2023-03-23T03:02:47;12.00;90.80
68480;DHT22;55469;48.934;12.050;2023-03-23T03:05:43;12.00;90.80
68480;DHT22;55469;48.934;12.050;2023-03-23T03:11:16;11.90;90.70
68480;DHT22;55469;48.934;12.050;2023-03-23T03:14:03;11.90;90.80
68480;DHT22;55469;48.934;12.050;2023-03-23T03:16:44;11.90;90.80
68480;DHT22;55469;48.934;12.050;2023-03-23T03:19:17;11.90;90.80
68480;DHT22;55469;48.934;12.050;2023-03-23T03:21:47;11.80;90.80
68480;DHT22;55469;48.934;12.050;2023-03-23T03:24:18;11.80;90.80
68480;DHT22;55469;48.934;12.050;2023-03-23T03:26:47;11.90;90.90
68480;DHT22;55469;48.934;12.050;2023-03-23T03:29:22;11.90;90.90
68480;DHT22;55469;48.934;12.050;2023-03-23T03:31:51;11.80;90.80
68480;DHT22;55469;48.934;12.050;2023-03-23T03:34:20;11.80;90.90
68480;DHT22;55469;48.934;12.050;2023-03-23T03:36:48;11.80;90.90
68480;DHT22;55469;48.934;12.050;2023-03-23T03:39:15;11.80;90.90
68480;DHT22;55469;48.934;12.050;2023-03-23T03:41:43;11.70;91.30
68480;DHT22;55469;48.934;12.050;2023-03-23T03:44:10;11.80;90.90
68480;DHT22;55469;48.934;12.050;2023-03-23T03:46:36;11.70;90.90
68480;DHT22;55469;48.934;12.050;2023-03-23T03:49:05;11.70;90.90
68480;DHT22;55469;48.934;12.050;2023-03-23T03:51:33;11.70;90.90
68480;DHT22;55469;48.934;12.050;2023-03-23T03:54:00;11.70;90.80
68480;DHT22;55469;48.934;12.050;2023-03-23T03:56:26;11.70;90.90
68480;DHT22;55469;48.934;12.050;2023-03-23T03:58:53;11.70;91.00
68480;DHT22;55469;48.934;12.050;2023-03-23T04:01:20;11.70;91.00
68480;DHT22;55469;48.934;12.050;2023-03-23T04:03:48;11.70;90.90
68480;DHT22;55469;48.934;12.050;2023-03-23T04:06:15;11.70;90.90
68480;DHT22;55469;48.934;12.050;2023-03-23T04:08:41;11.70;90.90
68480;DHT22;55469;48.934;12.050;2023-03-23T04:11:09;11.70;90.90
68480;DHT22;55469;48.934;12.050;2023-03-23T04:13:36;11.60;90.90
68480;DHT22;55469;48.934;12.050;2023-03-23T04:16:02;11.60;90.90
68480;DHT22;55469;48.934;12.050;2023-03-23T04:18:29;11.60;90.90
68480;DHT22;55469;48.934;12.050;2023-03-23T04:20:57;11.60;90.90
68480;DHT22;55469;48.934;12.050;2023-03-23T04:23:25;11.60;90.90
68480;DHT22;55469;48.934;12.050;2023-03-23T04:25:56;11.60;90.90
68480;DHT22;55469;48.934;12.050;2023-03-23T04:28:24;11.60;90.90
68480;DHT22;55469;48.934;12.050;2023-03-23T04:30:51;11.50;90.90
68480;DHT22;55469;48.934;12.050;2023-03-23T04:33:25;11.60;90.90
68480;DHT22;55469;48.934;12.050;2023-03-23T04:35:54;11.60;90.90
68480;DHT22;55469;48.934;12.050;2023-03-23T04:38:23;11.50;91.00
68480;DHT22;55469;48.934;12.050;2023-03-23T04:40:51;11.60;91.00
68480;DHT22;55469;48.934;12.050;2023-03-23T04:43:22;11.50;91.00
68480;DHT22;55469;48.934;12.050;2023-03-23T04:45:57;11.50;91.50
68480;DHT22;55469;48.934;12.050;2023-03-23T04:48:25;11.50;91.00
68480;DHT22;55469;48.934;12.050;2023-03-23T04:50:52;11.50;91.00
68480;DHT22;55469;48.934;12.050;2023-03-23T04:53:18;11.50;91.00
68480;DHT22;55469;48.934;12.050;2023-03-23T04:55:44;11.50;91.00
68480;DHT22;55469;48.934;12.050;2023-03-23T04:58:11;11.50;91.00
68480;DHT22;55469;48.934;12.050;2023-03-23T05:00:40;11.50;91.00
68480;DHT22;55469;48.934;12.050;2023-03-23T05:03:09;11.40;91.00
68480;DHT22;55469;48.934;12.050;2023-03-23T05:05:36;11.50;91.00
68480;DHT22;55469;48.934;12.050;2023-03-23T05:08:02;11.50;91.00
68480;DHT22;55469;48.934;12.050;2023-03-23T05:10:28;11.50;91.00
68480;DHT22;55469;48.934;12.050;2023-03-23T05:12:54;11.50;91.00
68480;DHT22;55469;48.934;12.050;2023-03-23T05:15:20;11.40;91.00
68480;DHT22;55469;48.934;12.050;2023-03-23T05:17:46;11.40;91.00
68480;DHT22;55469;48.934;12.050;2023-03-23T05:20:15;11.40;91.00
68480;DHT22;55469;48.934;12.050;2023-03-23T05:22:45;11.40;91.00
68480;DHT22;55469;48.934;12.050;2023-03-23T05:25:16;11.40;91.00
68480;DHT22;55469;48.934;12.050;2023-03-23T05:27:46;11.40;91.00
68480;DHT22;55469;48.934;12.050;2023-03-23T05:30:18;11.40;91.00
68480;DHT22;55469;48.934;12.050;2023-03-23T05:32:45;11.40;91.00
68480;DHT22;55469;48.934;12.050;2023-03-23T05:35:16;11.40;91.00
68480;DHT22;55469;48.934;12.050;2023-03-23T05:37:43;11.40;91.00
68480;DHT22;55469;48.934;12.050;2023-03-23T05:40:10;11.40;91.00
68480;DHT22;55469;48.934;12.050;2023-03-23T05:42:38;11.40;91.00
68480;DHT22;55469;48.934;12.050;2023-03-23T05:45:07;11.40;91.00
68480;DHT22;55469;48.934;12.050;2023-03-23T05:47:34;11.40;91.00
68480;DHT22;55469;48.934;12.050;2023-03-23T05:50:00;11.40;91.00
68480;DHT22;55469;48.934;12.050;2023-03-23T05:52:27;11.40;91.00
68480;DHT22;55469;48.934;12.050;2023-03-23T05:54:53;11.30;91.00
68480;DHT22;55469;48.934;12.050;2023-03-23T05:57:19;11.30;91.50
68480;DHT22;55469;48.934;12.050;2023-03-23T05:59:48;11.40;91.00
68480;DHT22;55469;48.934;12.050;2023-03-23T06:02:14;11.30;91.00
68480;DHT22;55469;48.934;12.050;2023-03-23T06:04:40;11.30;91.50
68480;DHT22;55469;48.934;12.050;2023-03-23T06:07:07;11.30;91.00
68480;DHT22;55469;48.934;12.050;2023-03-23T06:09:38;11.30;90.90
68480;DHT22;55469;48.934;12.050;2023-03-23T06:12:04;11.30;91.00
68480;DHT22;55469;48.934;12.050;2023-03-23T06:14:30;11.40;91.00
68480;DHT22;55469;48.934;12.050;2023-03-23T06:16:56;11.30;90.90
68480;DHT22;55469;48.934;12.050;2023-03-23T06:19:22;11.40;90.90
68480;DHT22;55469;48.934;12.050;2023-03-23T06:21:48;11.40;90.90
68480;DHT22;55469;48.934;12.050;2023-03-23T06:24:17;11.40;90.90
68480;DHT22;55469;48.934;12.050;2023-03-23T06:26:43;11.40;90.80
68480;DHT22;55469;48.934;12.050;2023-03-23T06:29:09;11.40;90.80
68480;DHT22;55469;48.934;12.050;2023-03-23T06:31:41;11.40;90.80
68480;DHT22;55469;48.934;12.050;2023-03-23T06:34:10;11.30;90.80
68480;DHT22;55469;48.934;12.050;2023-03-23T06:36:36;11.40;91.30
68480;DHT22;55469;48.934;12.050;2023-03-23T06:39:04;11.40;90.80
68480;DHT22;55469;48.934;12.050;2023-03-23T06:41:33;11.40;90.80
68480;DHT22;55469;48.934;12.050;2023-03-23T06:44:00;11.40;90.80
68480;DHT22;55469;48.934;12.050;2023-03-23T06:46:26;11.40;90.70
68480;DHT22;55469;48.934;12.050;2023-03-23T06:48:53;11.40;90.70
68480;DHT22;55469;48.934;12.050;2023-03-23T06:51:20;11.40;90.70
68480;DHT22;55469;48.934;12.050;2023-03-23T06:53:46;11.40;90.70
68480;DHT22;55469;48.934;12.050;2023-03-23T06:56:12;11.40;90.70
68480;DHT22;55469;48.934;12.050;2023-03-23T06:58:39;11.40;90.70
68480;DHT22;55469;48.934;12.050;2023-03-23T07:01:05;11.40;90.70
68480;DHT22;55469;48.934;12.050;2023-03-23T07:03:32;11.40;90.70
68480;DHT22;55469;48.934;12.050;2023-03-23T07:05:58;11.40;90.60
68480;DHT22;55469;48.934;12.050;2023-03-23T07:08:26;11.40;90.70
68480;DHT22;55469;48.934;12.050;2023-03-23T07:10:53;11.40;90.60
68480;DHT22;55469;48.934;12.050;2023-03-23T07:13:19;11.40;90.60
68480;DHT22;55469;48.934;12.050;2023-03-23T07:15:45;11.40;90.60
68480;DHT22;55469;48.934;12.050;2023-03-23T07:18:12;11.40;90.60
68480;DHT22;55469;48.934;12.050;2023-03-23T07:20:38;11.40;90.60
68480;DHT22;55469;48.934;12.050;2023-03-23T07:23:04;11.40;90.60
68480;DHT22;55469;48.934;12.050;2023-03-23T07:25:33;11.40;90.60
68480;DHT22;55469;48.934;12.050;2023-03-23T07:28:03;11.40;90.60
68480;DHT22;55469;48.934;12.050;2023-03-23T07:30:29;11.40;90.60
68480;DHT22;55469;48.934;12.050;2023-03-23T07:32:56;11.40;90.60
68480;DHT22;55469;48.934;12.050;2023-03-23T07:35:23;11.40;90.60
68480;DHT22;55469;48.934;12.050;2023-03-23T07:37:50;11.40;90.60
68480;DHT22;55469;48.934;12.050;2023-03-23T07:40:17;11.40;90.60
68480;DHT22;55469;48.934;12.050;2023-03-23T07:42:45;11.40;90.60
68480;DHT22;55469;48.934;12.050;2023-03-23T07:45:14;11.40;90.60
68480;DHT22;55469;48.934;12.050;2023-03-23T07:47:40;11.40;90.60
68480;DHT22;55469;48.934;12.050;2023-03-23T07:50:08;11.50;90.60
68480;DHT22;55469;48.934;12.050;2023-03-23T07:52:35;11.40;90.60
68480;DHT22;55469;48.934;12.050;2023-03-23T07:55:02;11.50;90.60
68480;DHT22;55469;48.934;12.050;2023-03-23T07:57:30;11.40;90.60
68480;DHT22;55469;48.934;12.050;2023-03-23T07:59:56;11.40;90.60
68480;DHT22;55469;48.934;12.050;2023-03-23T08:02:23;11.50;90.60
68480;DHT22;55469;48.934;12.050;2023-03-23T08:04:49;11.50;90.60
68480;DHT22;55469;48.934;12.050;2023-03-23T08:07:16;11.50;90.50
68480;DHT22;55469;48.934;12.050;2023-03-23T08:09:44;11.50;90.50
68480;DHT22;55469;48.934;12.050;2023-03-23T08:12:10;11.50;90.50
68480;DHT22;55469;48.934;12.050;2023-03-23T08:14:37;11.50;90.60
68480;DHT22;55469;48.934;12.050;2023-03-23T08:17:03;11.50;90.50
68480;DHT22;55469;48.934;12.050;2023-03-23T08:19:29;11.50;90.50
68480;DHT22;55469;48.934;12.050;2023-03-23T08:21:55;11.50;90.50
68480;DHT22;55469;48.934;12.050;2023-03-23T08:24:22;11.50;90.50
68480;DHT22;55469;48.934;12.050;2023-03-23T08:26:48;11.50;90.50
68480;DHT22;55469;48.934;12.050;2023-03-23T08:29:14;11.50;90.50
68480;DHT22;55469;48.934;12.050;2023-03-23T08:31:41;11.50;90.50
68480;DHT22;55469;48.934;12.050;2023-03-23T08:34:07;11.50;90.50
68480;DHT22;55469;48.934;12.050;2023-03-23T08:36:33;11.50;90.50
68480;DHT22;55469;48.934;12.050;2023-03-23T08:39:00;11.50;90.50
68480;DHT22;55469;48.934;12.050;2023-03-23T08:41:26;11.50;90.50
68480;DHT22;55469;48.934;12.050;2023-03-23T08:43:52;11.50;90.40
68480;DHT22;55469;48.934;12.050;2023-03-23T08:46:18;11.60;90.40
68480;DHT22;55469;48.934;12.050;2023-03-23T08:48:45;11.60;90.40
68480;DHT22;55469;48.934;12.050;2023-03-23T08:51:12;11.60;90.40
68480;DHT22;55469;48.934;12.050;2023-03-23T08:53:38;11.60;90.40
68480;DHT22;55469;48.934;12.050;2023-03-23T08:56:10;11.60;90.40
68480;DHT22;55469;48.934;12.050;2023-03-23T08:58:38;11.60;90.40
68480;DHT22;55469;48.934;12.050;2023-03-23T09:01:06;11.70;90.90
68480;DHT22;55469;48.934;12.050;2023-03-23T09:03:34;11.60;90.40
68480;DHT22;55469;48.934;12.050;2023-03-23T09:06:04;11.60;90.30
68480;DHT22;55469;48.934;12.050;2023-03-23T09:08:31;11.70;90.30
68480;DHT22;55469;48.934;12.050;2023-03-23T09:11:05;11.70;90.40
68480;DHT22;55469;48.934;12.050;2023-03-23T09:13:33;11.70;90.30
68480;DHT22;55469;48.934;12.050;2023-03-23T09:15:59;11.70;90.30
68480;DHT22;55469;48.934;12.050;2023-03-23T09:18:26;11.70;90.30
68480;DHT22;55469;48.934;12.050;2023-03-23T09:20:53;11.70;90.30
68480;DHT22;55469;48.934;12.050;2023-03-23T09:23:19;11.70;90.30
68480;DHT22;55469;48.934;12.050;2023-03-23T09:25:46;11.70;90.30
68480;DHT22;55469;48.934;12.050;2023-03-23T09:28:12;11.80;90.30
68480;DHT22;55469;48.934;12.050;2023-03-23T09:30:39;11.70;90.30
68480;DHT22;55469;48.934;12.050;2023-03-23T09:33:06;11.80;90.30
68480;DHT22;55469;48.934;12.050;2023-03-23T09:35:34;11.80;90.30
68480;DHT22;55469;48.934;12.050;2023-03-23T09:38:01;11.80;90.30
68480;DHT22;55469;48.934;12.050;2023-03-23T09:40:46;11.80;90.30
68480;DHT22;55469;48.934;12.050;2023-03-23T09:43:35;11.80;90.20
68480;DHT22;55469;48.934;12.050;2023-03-23T09:49:21;11.80;90.20
68480;DHT22;55469;48.934;12.050;2023-03-23T09:52:20;11.90;90.20
68480;DHT22;55469;48.934;12.050;2023-03-23T09:54:53;11.90;90.20
68480;DHT22;55469;48.934;12.050;2023-03-23T10:05:51;12.00;90.10
68480;DHT22;55469;48.934;12.050;2023-03-23T10:08:21;12.00;90.20
68480;DHT22;55469;48.934;12.050;2023-03-23T10:16:25;12.10;90.10
68480;DHT22;55469;48.934;12.050;2023-03-23T10:21:29;12.00;90.10
68480;DHT22;55469;48.934;12.050;2023-03-23T10:24:00;12.00;90.10
68480;DHT22;55469;48.934;12.050;2023-03-23T10:29:12;12.00;90.00
68480;DHT22;55469;48.934;12.050;2023-03-23T10:31:52;12.10;90.00
68480;DHT22;55469;48.934;12.050;2023-03-23T10:34:57;12.00;90.00
68480;DHT22;55469;48.934;12.050;2023-03-23T10:37:29;12.10;90.00
68480;DHT22;55469;48.934;12.050;2023-03-23T10:40:00;12.10;90.00
68480;DHT22;55469;48.934;12.050;2023-03-23T10:42:31;12.10;90.00
68480;DHT22;55469;48.934;12.050;2023-03-23T10:45:00;12.20;90.00
68480;DHT22;55469;48.934;12.050;2023-03-23T10:47:55;12.20;90.00
68480;DHT22;55469;48.934;12.050;2023-03-23T10:50:32;12.20;89.90
68480;DHT22;55469;48.934;12.050;2023-03-23T10:53:00;12.20;89.80
68480;DHT22;55469;48.934;12.050;2023-03-23T10:55:40;12.20;89.60
68480;DHT22;55469;48.934;12.050;2023-03-23T10:58:22;12.20;89.60
68480;DHT22;55469;48.934;12.050;2023-03-23T11:00:56;12.30;89.60
68480;DHT22;55469;48.934;12.050;2023-03-23T11:03:35;12.30;89.50
68480;DHT22;55469;48.934;12.050;2023-03-23T11:06:18;12.30;89.60
68480;DHT22;55469;48.934;12.050;2023-03-23T11:08:55;12.30;89.40
68480;DHT22;55469;48.934;12.050;2023-03-23T11:11:31;12.40;89.30
68480;DHT22;55469;48.934;12.050;2023-03-23T11:16:52;12.40;89.10
68480;DHT22;55469;48.934;12.050;2023-03-23T11:19:31;12.40;89.00
68480;DHT22;55469;48.934;12.050;2023-03-23T11:24:35;12.50;88.90
68480;DHT22;55469;48.934;12.050;2023-03-23T11:27:03;12.50;88.80
68480;DHT22;55469;48.934;12.050;2023-03-23T11:29:33;12.50;88.80
68480;DHT22;55469;48.934;12.050;2023-03-23T11:34:31;12.60;88.70
68480;DHT22;55469;48.934;12.050;2023-03-23T11:40:16;12.60;88.40
68480;DHT22;55469;48.934;12.050;2023-03-23T11:45:19;12.70;88.20
68480;DHT22;55469;48.934;12.050;2023-03-23T11:47:58;12.70;87.90
68480;DHT22;55469;48.934;12.050;2023-03-23T11:58:59;12.80;87.60
68480;DHT22;55469;48.934;12.050;2023-03-23T12:10:33;12.90;87.60
68480;DHT22;55469;48.934;12.050;2023-03-23T12:16:28;12.90;87.60
68480;DHT22;55469;48.934;12.050;2023-03-23T12:21:38;12.90;87.50
68480;DHT22;55469;48.934;12.050;2023-03-23T12:24:33;12.90;87.30
68480;DHT22;55469;48.934;12.050;2023-03-23T12:42:34;13.00;87.00
68480;DHT22;55469;48.934;12.050;2023-03-23T12:45:52;13.10;87.20
68480;DHT22;55469;48.934;12.050;2023-03-23T12:48:35;13.00;87.30
68480;DHT22;55469;48.934;12.050;2023-03-23T12:51:27;13.00;87.30
68480;DHT22;55469;48.934;12.050;2023-03-23T12:54:18;13.10;87.20
68480;DHT22;55469;48.934;12.050;2023-03-23T12:57:19;13.10;87.10
68480;DHT22;55469;48.934;12.050;2023-03-23T13:00:06;13.10;86.70
68480;DHT22;55469;48.934;12.050;2023-03-23T13:02:48;13.10;88.10
68480;DHT22;55469;48.934;12.050;2023-03-23T13:08:12;13.10;87.00
68480;DHT22;55469;48.934;12.050;2023-03-23T13:10:50;13.20;87.10
68480;DHT22;55469;48.934;12.050;2023-03-23T13:13:22;13.20;87.10
68480;DHT22;55469;48.934;12.050;2023-03-23T13:16:07;13.20;87.30
68480;DHT22;55469;48.934;12.050;2023-03-23T13:19:13;13.20;87.30
68480;DHT22;55469;48.934;12.050;2023-03-23T13:24:38;13.20;87.30
68480;DHT22;55469;48.934;12.050;2023-03-23T13:27:15;13.20;87.30
68480;DHT22;55469;48.934;12.050;2023-03-23T13:29:46;13.20;87.40
68480;DHT22;55469;48.934;12.050;2023-03-23T13:32:19;13.20;87.20
68480;DHT22;55469;48.934;12.050;2023-03-23T13:34:47;13.60;85.50
68480;DHT22;55469;48.934;12.050;2023-03-23T13:37:24;14.10;83.60
68480;DHT22;55469;48.934;12.050;2023-03-23T13:39:57;14.40;81.80
68480;DHT22;55469;48.934;12.050;2023-03-23T13:42:51;14.70;80.70
68480;DHT22;55469;48.934;12.050;2023-03-23T13:47:48;14.90;79.20
68480;DHT22;55469;48.934;12.050;2023-03-23T13:57:58;14.50;81.60
68480;DHT22;55469;48.934;12.050;2023-03-23T14:00:46;15.00;79.30
68480;DHT22;55469;48.934;12.050;2023-03-23T14:03:59;15.10;78.80
68480;DHT22;55469;48.934;12.050;2023-03-23T14:06:18;15.00;79.90
68480;DHT22;55469;48.934;12.050;2023-03-23T14:08:49;14.90;80.30
68480;DHT22;55469;48.934;12.050;2023-03-23T14:11:24;15.00;78.50
68480;DHT22;55469;48.934;12.050;2023-03-23T14:16:37;15.40;76.90
68480;DHT22;55469;48.934;12.050;2023-03-23T14:19:23;15.50;75.30
68480;DHT22;55469;48.934;12.050;2023-03-23T14:21:55;15.60;74.70
68480;DHT22;55469;48.934;12.050;2023-03-23T14:24:40;15.50;75.30
68480;DHT22;55469;48.934;12.050;2023-03-23T14:27:16;15.50;75.20
68480;DHT22;55469;48.934;12.050;2023-03-23T14:29:45;15.60;74.80
68480;DHT22;55469;48.934;12.050;2023-03-23T14:32:15;15.50;74.80
68480;DHT22;55469;48.934;12.050;2023-03-23T14:34:45;15.50;74.90
68480;DHT22;55469;48.934;12.050;2023-03-23T14:37:13;15.40;76.60
68480;DHT22;55469;48.934;12.050;2023-03-23T14:39:45;15.20;78.10
68480;DHT22;55469;48.934;12.050;2023-03-23T14:42:20;15.10;79.70
68480;DHT22;55469;48.934;12.050;2023-03-23T14:44:51;15.00;80.40
68480;DHT22;55469;48.934;12.050;2023-03-23T14:47:30;15.00;80.60
68480;DHT22;55469;48.934;12.050;2023-03-23T14:50:00;15.00;81.10
68480;DHT22;55469;48.934;12.050;2023-03-23T14:52:29;15.00;82.30
68480;DHT22;55469;48.934;12.050;2023-03-23T14:55:20;14.90;83.20
68480;DHT22;55469;48.934;12.050;2023-03-23T14:57:49;14.90;83.30
68480;DHT22;55469;48.934;12.050;2023-03-23T15:00:20;14.90;84.10
68480;DHT22;55469;48.934;12.050;2023-03-23T15:02:53;14.90;83.80
68480;DHT22;55469;48.934;12.050;2023-03-23T15:05:30;15.00;84.60
68480;DHT22;55469;48.934;12.050;2023-03-23T15:08:03;15.00;85.80
68480;DHT22;55469;48.934;12.050;2023-03-23T15:10:31;15.00;85.50
68480;DHT22;55469;48.934;12.050;2023-03-23T15:12:57;15.20;80.10
68480;DHT22;55469;48.934;12.050;2023-03-23T15:15:32;15.40;78.30
68480;DHT22;55469;48.934;12.050;2023-03-23T15:18:01;15.50;77.30
68480;DHT22;55469;48.934;12.050;2023-03-23T15:20:31;15.60;76.80
68480;DHT22;55469;48.934;12.050;2023-03-23T15:23:06;15.60;76.70
68480;DHT22;55469;48.934;12.050;2023-03-23T15:25:34;15.70;76.70
68480;DHT22;55469;48.934;12.050;2023-03-23T15:30:36;15.70;76.50
68480;DHT22;55469;48.934;12.050;2023-03-23T15:33:11;15.70;76.10
68480;DHT22;55469;48.934;12.050;2023-03-23T15:35:40;15.70;76.00
68480;DHT22;55469;48.934;12.050;2023-03-23T15:38:30;15.70;76.10
68480;DHT22;55469;48.934;12.050;2023-03-23T15:41:00;15.70;76.10
68480;DHT22;55469;48.934;12.050;2023-03-23T15:43:49;15.70;76.30
68480;DHT22;55469;48.934;12.050;2023-03-23T15:51:23;15.70;76.50
68480;DHT22;55469;48.934;12.050;2023-03-23T15:53:51;15.70;75.90
68480;DHT22;55469;48.934;12.050;2023-03-23T15:56:17;15.70;76.10
68480;DHT22;55469;48.934;12.050;2023-03-23T15:58:44;15.70;76.60
68480;DHT22;55469;48.934;12.050;2023-03-23T16:01:23;15.70;77.00
68480;DHT22;55469;48.934;12.050;2023-03-23T16:03:56;15.70;76.60
68480;DHT22;55469;48.934;12.050;2023-03-23T16:06:26;15.60;76.80
68480;DHT22;55469;48.934;12.050;2023-03-23T16:08:54;15.70;77.00
68480;DHT22;55469;48.934;12.050;2023-03-23T16:11:19;15.70;76.90
68480;DHT22;55469;48.934;12.050;2023-03-23T16:13:45;15.70;76.90
68480;DHT22;55469;48.934;12.050;2023-03-23T16:16:15;15.60;76.80
68480;DHT22;55469;48.934;12.050;2023-03-23T16:19:02;15.70;76.80
68480;DHT22;55469;48.934;12.050;2023-03-23T16:21:28;15.70;76.90
68480;DHT22;55469;48.934;12.050;2023-03-23T16:23:54;15.70;76.80
68480;DHT22;55469;48.934;12.050;2023-03-23T16:26:20;15.70;76.80
68480;DHT22;55469;48.934;12.050;2023-03-23T16:28:46;15.70;76.90
68480;DHT22;55469;48.934;12.050;2023-03-23T16:31:12;15.70;76.60
68480;DHT22;55469;48.934;12.050;2023-03-23T16:33:38;15.70;76.60
68480;DHT22;55469;48.934;12.050;2023-03-23T16:36:04;15.70;76.80
68480;DHT22;55469;48.934;12.050;2023-03-23T16:38:30;15.70;77.00
68480;DHT22;55469;48.934;12.050;2023-03-23T16:40:56;15.70;76.80
68480;DHT22;55469;48.934;12.050;2023-03-23T16:43:21;15.70;77.40
68480;DHT22;55469;48.934;12.050;2023-03-23T16:45:47;15.70;77.40
68480;DHT22;55469;48.934;12.050;2023-03-23T16:48:14;15.70;77.30
68480;DHT22;55469;48.934;12.050;2023-03-23T16:50:41;15.70;78.10
68480;DHT22;55469;48.934;12.050;2023-03-23T16:53:08;15.80;77.70
68480;DHT22;55469;48.934;12.050;2023-03-23T16:55:35;15.80;77.70
68480;DHT22;55469;48.934;12.050;2023-03-23T16:58:01;15.70;78.60
68480;DHT22;55469;48.934;12.050;2023-03-23T17:00:28;15.70;78.70
68480;DHT22;55469;48.934;12.050;2023-03-23T17:02:54;15.70;78.80
68480;DHT22;55469;48.934;12.050;2023-03-23T17:05:25;15.60;79.10
68480;DHT22;55469;48.934;12.050;2023-03-23T17:07:53;15.60;79.60
68480;DHT22;55469;48.934;12.050;2023-03-23T17:10:21;15.60;79.80
68480;DHT22;55469;48.934;12.050;2023-03-23T17:12:47;15.60;81.70
68480;DHT22;55469;48.934;12.050;2023-03-23T17:15:13;15.50;80.30
68480;DHT22;55469;48.934;12.050;2023-03-23T17:17:39;15.50;79.90
68480;DHT22;55469;48.934;12.050;2023-03-23T17:20:05;15.60;80.80
68480;DHT22;55469;48.934;12.050;2023-03-23T17:22:32;15.50;80.20
68480;DHT22;55469;48.934;12.050;2023-03-23T17:24:58;15.40;82.00
68480;DHT22;55469;48.934;12.050;2023-03-23T17:27:24;15.40;80.40
68480;DHT22;55469;48.934;12.050;2023-03-23T17:29:50;15.40;80.00
68480;DHT22;55469;48.934;12.050;2023-03-23T17:32:16;15.30;80.80
68480;DHT22;55469;48.934;12.050;2023-03-23T17:34:42;15.30;80.60
68480;DHT22;55469;48.934;12.050;2023-03-23T17:37:08;15.30;81.80